createdAt,value
2019-01-24T00:02:09.535Z,62.69
2019-01-24T00:07:12.825Z,62.34
2019-01-24T00:12:16.030Z,62.34
2019-01-24T00:17:19.249Z,62.78
2019-01-24T00:22:22.529Z,63.33
2019-01-24T00:27:25.843Z,63.19
2019-01-24T00:32:29.044Z,63.65
2019-01-24T00:37:32.258Z,62.78
2019-01-24T00:42:35.548Z,63.33
2019-01-24T00:47:38.746Z,63.24
2019-01-24T00:52:41.961Z,62.99
2019-01-24T00:57:45.162Z,63.31
2019-01-24T01:02:48.415Z,63.50
2019-01-24T01:07:51.642Z,63.42
2019-01-24T01:12:54.838Z,63.21
2019-01-24T01:17:58.062Z,62.74
2019-01-24T01:23:01.285Z,63.11
2019-01-24T01:28:04.571Z,63.40
2019-01-24T01:33:07.826Z,63.17
2019-01-24T01:38:11.046Z,62.61
2019-01-24T01:43:14.260Z,62.68
2019-01-24T01:48:17.639Z,62.88
2019-01-24T01:53:20.853Z,62.14
2019-01-24T01:58:24.090Z,63.03
2019-01-24T02:03:28.426Z,63.10
2019-01-24T02:08:31.642Z,63.11
2019-01-24T02:13:34.847Z,63.16
2019-01-24T02:18:38.089Z,62.33
2019-01-24T02:23:41.309Z,62.64
2019-01-24T02:28:44.618Z,62.60
2019-01-24T02:33:47.934Z,63.25
2019-01-24T02:38:51.139Z,63.40
2019-01-24T02:43:54.436Z,62.94
2019-01-24T02:48:57.665Z,63.36
2019-01-24T02:54:00.904Z,63.57
2019-01-24T02:59:04.166Z,62.98
2019-01-24T03:04:07.485Z,63.24
2019-01-24T03:09:10.778Z,63.85
2019-01-24T03:14:14.004Z,63.06
2019-01-24T03:19:17.215Z,63.15
2019-01-24T03:24:20.474Z,63.04
2019-01-24T03:29:23.677Z,63.21
2019-01-24T03:34:26.909Z,63.18
2019-01-24T03:39:30.107Z,63.57
2019-01-24T03:44:33.420Z,63.71
2019-01-24T03:49:36.616Z,63.95
2019-01-24T03:54:39.820Z,63.54
2019-01-24T03:59:43.148Z,63.60
2019-01-24T04:04:46.447Z,63.45
2019-01-24T04:09:49.690Z,63.24
2019-01-24T04:14:52.936Z,63.60
2019-01-24T04:19:56.164Z,62.96
2019-01-24T04:24:59.429Z,63.27
2019-01-24T04:30:02.686Z,64.02
2019-01-24T04:35:06.134Z,63.87
2019-01-24T04:40:11.622Z,63.74
2019-01-24T04:45:15.430Z,63.55
2019-01-24T04:50:18.813Z,63.43
2019-01-24T04:55:22.041Z,63.23
2019-01-24T05:00:28.369Z,64.06
2019-01-24T05:05:31.578Z,63.61
2019-01-24T05:10:34.794Z,64.14
2019-01-24T05:15:38.005Z,64.79
2019-01-24T05:20:41.205Z,64.13
2019-01-24T05:25:44.428Z,64.22
2019-01-24T05:30:47.674Z,63.39
2019-01-24T05:35:50.897Z,63.63
2019-01-24T05:40:54.097Z,63.64
2019-01-24T05:45:57.303Z,64.21
2019-01-24T05:51:00.513Z,64.08
2019-01-24T05:56:03.763Z,64.70
2019-01-24T06:01:08.036Z,64.52
2019-01-24T06:06:11.233Z,65.00
2019-01-24T06:11:14.544Z,64.53
2019-01-24T06:16:17.746Z,64.02
2019-01-24T06:21:20.996Z,64.17
2019-01-24T06:26:24.212Z,64.20
2019-01-24T06:31:27.470Z,64.87
2019-01-24T06:36:30.672Z,64.85
2019-01-24T06:41:33.871Z,64.82
2019-01-24T06:46:37.093Z,64.49
2019-01-24T06:51:40.329Z,64.53
2019-01-24T06:56:43.523Z,64.47
2019-01-24T07:01:46.845Z,63.65
2019-01-24T07:06:50.047Z,63.29
2019-01-24T07:11:53.330Z,63.71
2019-01-24T07:16:56.569Z,64.14
2019-01-24T07:21:59.882Z,63.23
2019-01-24T07:27:03.161Z,63.51
2019-01-24T07:32:06.370Z,63.56
2019-01-24T07:37:09.569Z,63.38
2019-01-24T07:42:12.878Z,63.82
2019-01-24T07:47:16.186Z,63.66
2019-01-24T07:52:19.511Z,63.61
2019-01-24T07:57:22.747Z,63.87
2019-01-24T08:02:26.011Z,63.59
2019-01-24T08:07:29.224Z,63.63
2019-01-24T08:12:32.451Z,63.87
2019-01-24T08:17:35.689Z,64.66
2019-01-24T08:22:38.934Z,64.99
2019-01-24T08:27:42.259Z,65.66
2019-01-24T08:32:45.798Z,64.84
2019-01-24T08:37:49.062Z,64.96
2019-01-24T08:42:52.296Z,64.87
2019-01-24T08:47:55.545Z,65.26
2019-01-24T08:52:58.855Z,65.53
2019-01-24T08:58:02.096Z,65.03
2019-01-24T09:03:05.602Z,64.88
2019-01-24T09:08:08.964Z,65.99
2019-01-24T09:13:12.189Z,65.90
2019-01-24T09:18:15.394Z,65.42
2019-01-24T09:23:18.573Z,65.61
2019-01-24T09:28:21.775Z,66.34
2019-01-24T09:33:24.945Z,65.92
2019-01-24T09:38:28.185Z,65.59
2019-01-24T09:43:31.412Z,65.50
2019-01-24T09:48:34.605Z,65.02
2019-01-24T09:53:37.809Z,65.39
2019-01-24T09:58:41.004Z,65.74
2019-01-24T10:03:44.222Z,65.33
2019-01-24T10:08:47.397Z,65.96
2019-01-24T10:13:51.341Z,65.46
2019-01-24T10:18:54.568Z,65.64
2019-01-24T10:23:57.810Z,65.06
2019-01-24T10:29:01.060Z,64.34
2019-01-24T10:34:04.301Z,64.17
2019-01-24T10:39:08.804Z,63.97
2019-01-24T10:44:11.985Z,63.13
2019-01-24T10:49:15.206Z,63.39
2019-01-24T10:54:18.480Z,63.76
2019-01-24T10:59:21.648Z,62.67
2019-01-24T11:04:24.882Z,62.94
2019-01-24T11:09:28.116Z,63.24
2019-01-24T11:14:31.324Z,63.08
2019-01-24T11:19:34.609Z,63.11
2019-01-24T11:24:37.830Z,62.86
2019-01-24T11:29:41.098Z,62.95
2019-01-24T11:34:44.448Z,62.69
2019-01-24T11:39:47.698Z,62.13
2019-01-24T11:44:50.899Z,61.81
2019-01-24T11:49:54.118Z,62.44
2019-01-24T11:54:57.322Z,60.93
2019-01-24T12:00:00.535Z,61.31
2019-01-24T12:05:03.899Z,61.34
2019-01-24T12:10:09.764Z,61.07
2019-01-24T12:15:14.378Z,61.22
2019-01-24T12:20:19.299Z,60.91
2019-01-24T12:25:22.562Z,60.92
2019-01-24T12:30:27.741Z,61.08
2019-01-24T12:35:30.999Z,61.70
2019-01-24T12:40:34.300Z,61.75
2019-01-24T12:45:37.818Z,61.17
2019-01-24T12:50:41.107Z,61.15
2019-01-24T12:55:44.436Z,60.96
2019-01-24T13:00:47.799Z,60.23
2019-01-24T13:05:51.023Z,60.51
2019-01-24T13:10:59.871Z,60.21
2019-01-24T13:16:03.069Z,60.21
2019-01-24T13:21:06.293Z,60.14
2019-01-24T13:26:09.624Z,60.27
2019-01-24T13:31:12.970Z,60.18
2019-01-24T13:36:19.149Z,59.40
2019-01-24T13:41:22.479Z,60.00
2019-01-24T13:46:25.861Z,59.75
2019-01-24T13:51:29.101Z,59.69
2019-01-24T13:56:32.394Z,59.51
2019-01-24T14:01:35.690Z,59.14
2019-01-24T14:06:39.038Z,59.56
2019-01-24T14:11:42.295Z,60.29
2019-01-24T14:16:45.598Z,59.53
2019-01-24T14:21:48.907Z,60.00
2019-01-24T14:26:52.211Z,58.86
2019-01-24T14:31:55.565Z,60.15
2019-01-24T14:36:58.884Z,60.89
2019-01-24T14:42:02.258Z,60.54
2019-01-24T14:47:06.117Z,60.13
2019-01-24T14:52:09.814Z,60.48
2019-01-24T14:57:13.601Z,60.80
2019-01-24T15:02:17.410Z,61.71
2019-01-24T15:07:21.029Z,62.53
2019-01-24T15:12:24.446Z,62.62
2019-01-24T15:17:27.925Z,62.41
2019-01-24T15:22:31.482Z,62.24
2019-01-24T15:27:34.858Z,62.30
2019-01-24T15:32:38.379Z,62.50
2019-01-24T15:37:41.831Z,62.62
2019-01-24T15:42:45.254Z,62.97
2019-01-24T15:47:48.846Z,62.41
2019-01-24T15:52:52.214Z,62.86
2019-01-24T15:57:55.533Z,62.46
2019-01-24T16:02:58.989Z,62.71
2019-01-24T16:08:03.370Z,62.38
2019-01-24T16:13:06.852Z,62.49
2019-01-24T16:18:11.272Z,62.72
2019-01-24T16:23:14.627Z,61.80
2019-01-24T16:28:24.449Z,61.82
2019-01-24T16:33:21.389Z,62.26
2019-01-24T16:38:24.774Z,62.23
2019-01-24T16:43:28.074Z,62.41
2019-01-24T16:48:31.359Z,61.69
2019-01-24T16:53:34.710Z,62.03
2019-01-24T16:58:38.079Z,62.74
2019-01-24T17:03:41.413Z,62.48
2019-01-24T17:08:45.502Z,62.58
2019-01-24T17:13:48.835Z,62.73
2019-01-24T17:18:52.807Z,62.49
2019-01-24T17:23:56.137Z,62.67
2019-01-24T17:28:59.461Z,63.52
2019-01-24T17:34:02.779Z,62.25
2019-01-24T17:39:16.221Z,63.16
2019-01-24T17:44:19.559Z,63.54
2019-01-24T17:49:22.915Z,63.50
2019-01-24T17:54:26.232Z,63.64
2019-01-24T17:59:29.591Z,63.74
2019-01-24T18:04:32.946Z,63.47
2019-01-24T18:09:36.356Z,63.87
2019-01-24T18:14:39.711Z,63.70
2019-01-24T18:19:43.042Z,63.62
2019-01-24T18:24:46.363Z,63.12
2019-01-24T18:29:49.751Z,64.14
2019-01-24T18:34:53.207Z,63.83
2019-01-24T18:39:56.636Z,63.50
2019-01-24T18:45:00.191Z,63.78
2019-01-24T18:50:03.613Z,63.63
2019-01-24T18:55:08.315Z,64.71
2019-01-24T19:00:14.680Z,63.97
2019-01-24T19:05:18.018Z,63.77
2019-01-24T19:10:22.037Z,63.79
2019-01-24T19:15:25.476Z,64.15
2019-01-24T19:20:28.893Z,65.34
2019-01-24T19:25:32.326Z,64.59
2019-01-24T19:30:35.660Z,64.28
2019-01-24T19:35:39.178Z,64.62
2019-01-24T19:40:42.601Z,64.69
2019-01-24T19:45:45.988Z,64.96
2019-01-24T19:50:49.318Z,66.31
2019-01-24T19:55:52.649Z,66.28
2019-01-24T20:00:55.944Z,65.51
2019-01-24T20:05:59.322Z,65.97
2019-01-24T20:11:02.773Z,65.88
2019-01-24T20:16:06.292Z,65.47
2019-01-24T20:21:12.686Z,64.90
2019-01-24T20:26:16.183Z,64.67
2019-01-24T20:31:19.646Z,64.48
2019-01-24T20:36:22.996Z,65.12
2019-01-24T20:41:26.384Z,65.57
2019-01-24T20:46:29.779Z,65.53
2019-01-24T20:51:33.147Z,65.82
2019-01-24T20:56:36.462Z,66.12
2019-01-24T21:01:39.778Z,66.60
2019-01-24T21:06:43.253Z,66.74
2019-01-24T21:11:46.566Z,66.16
2019-01-24T21:16:49.918Z,66.72
2019-01-24T21:21:53.333Z,66.95
2019-01-24T21:26:56.651Z,68.38
2019-01-24T21:31:59.962Z,67.22
2019-01-24T21:37:03.254Z,68.10
2019-01-24T21:42:06.561Z,67.64
2019-01-24T21:47:09.861Z,67.48
2019-01-24T21:52:13.138Z,66.61
2019-01-24T21:57:16.462Z,67.45
2019-01-24T22:02:19.767Z,67.76
2019-01-24T22:07:23.079Z,66.52
2019-01-24T22:12:26.338Z,66.93
2019-01-24T22:17:29.664Z,67.35
2019-01-24T22:22:32.863Z,68.84
2019-01-24T22:27:38.863Z,68.03
2019-01-24T22:32:42.159Z,68.40
2019-01-24T22:37:45.381Z,68.74
2019-01-24T22:42:48.641Z,68.00
2019-01-24T22:47:51.979Z,68.48
2019-01-24T22:52:55.225Z,68.02
2019-01-24T22:57:58.438Z,68.14
2019-01-24T23:03:01.663Z,67.72
2019-01-24T23:08:04.980Z,67.86
2019-01-24T23:13:08.178Z,68.74
2019-01-24T23:18:11.402Z,68.85
2019-01-24T23:23:14.711Z,69.31
2019-01-24T23:28:18.006Z,68.71
2019-01-24T23:33:21.199Z,68.89
2019-01-24T23:38:24.505Z,68.84
2019-01-24T23:43:27.765Z,69.40
2019-01-24T23:48:30.947Z,69.31
2019-01-24T23:53:34.403Z,68.76
2019-01-24T23:58:37.622Z,68.92
